Kibble, Illinois
Current Conditions -  °F | °C
As of 5:15 PM on Thursday 27 Nov 2014 (Local Time) from KRSV Reporting Station
Overcast Overcast  
Wind Chill: 19°   Ceiling: 3000
Heat Index: 29°   Visibility: 10mi
Dew Point: 22°   Wind: 13mph
Humidity: 76%   Direction: 290°WNW
Pressure: 30.46"   Gusts: NA
Location:  39.0119°N, 87.8886°W
Report Text: KRSV 272315Z AUTO 29011KT 10SM SCT023 OVC030 M02/M05 A3046 RMK AO2 T10171054
Loading
Personal Weather Stations






























Interactive Weather Map New forecast layout! Learn more

10-Day Weather Forecast

Advertisements
Track Severe Weather on mobile